Time;durP1;ratioP1;P1;durP2;ratioP2;P2;SDS_P1;SDS_P2;PMS_P1;PMS_P2;Temp;Humidity;BMP_temperature;BMP_pressure;BME280_temperature;BME280_humidity;BME280_pressure;Samples;Min_cycle;Max_cycle;Signal;HPM_P1;HPM_P2
2022/01/24 00:01:12;;;;;;;6.50;2.15;;;;;;;0.96;86.50;100350.06;5114639;28;20074;-51
2022/01/24 00:03:59;;;;;;;5.60;2.28;;;;;;;1.01;87.67;100352.66;5115016;28;20402;-53
2022/01/24 00:06:44;;;;;;;5.40;2.50;;;;;;;1.07;88.18;100352.63;5120139;28;20062;-55
2022/01/24 00:09:30;;;;;;;5.25;2.45;;;;;;;1.05;86.61;100351.75;5114931;28;20046;-54
2022/01/24 00:12:20;;;;;;;5.68;2.80;;;;;;;0.86;87.05;100346.63;5114574;28;20513;-53
2022/01/24 00:15:17;;;;;;;4.95;2.20;;;;;;;1.13;87.33;100368.94;5114701;28;20125;-55
2022/01/24 00:18:13;;;;;;;6.25;2.20;;;;;;;0.96;86.34;100380.19;5119868;28;20047;-49
2022/01/24 00:27:08;;;;;;;7.47;2.58;;;;;;;0.01;88.91;100369.97;5114571;28;20058;-52
2022/01/24 00:29:53;;;;;;;7.88;2.60;;;;;;;-0.07;89.65;100372.53;5114519;28;20058;-51
2022/01/24 00:32:39;;;;;;;7.05;2.92;;;;;;;0.28;89.60;100365.69;5114012;28;20062;-54
2022/01/24 00:35:25;;;;;;;5.28;2.03;;;;;;;0.54;90.37;100373.38;5114259;28;20371;-50
2022/01/24 00:38:11;;;;;;;5.40;2.83;;;;;;;0.59;89.40;100383.69;5112918;28;20517;-53
2022/01/24 00:40:57;;;;;;;6.10;2.67;;;;;;;0.72;89.97;100381.94;5120602;28;20109;-53
2022/01/24 00:47:02;;;;;;;5.97;2.58;;;;;;;0.55;89.10;100348.44;5114078;28;20055;-54
2022/01/24 00:55:39;;;;;;;5.95;2.67;;;;;;;0.59;86.19;100371.66;5113798;28;20050;-53
2022/01/24 00:58:25;;;;;;;6.28;2.60;;;;;;;0.60;86.19;100381.09;5113777;28;20050;-52
2022/01/24 01:01:11;;;;;;;11.32;3.25;;;;;;;0.39;85.97;100368.25;5114016;28;20146;-53
2022/01/24 01:03:57;;;;;;;4.68;2.33;;;;;;;0.41;86.12;100367.38;5113616;28;20070;-51
2022/01/24 01:06:45;;;;;;;6.85;2.88;;;;;;;0.55;86.68;100382.00;5113105;28;20059;-53
2022/01/24 01:18:43;;;;;;;7.13;3.15;;;;;;;0.64;83.62;100379.38;5113595;28;20549;-51
2022/01/24 01:21:29;;;;;;;4.82;2.50;;;;;;;0.98;88.24;100375.84;5113508;28;20047;-52
2022/01/24 01:24:16;;;;;;;9.25;3.13;;;;;;;0.72;84.37;100369.91;5113003;28;20055;-54
2022/01/24 01:27:26;;;;;;;8.07;2.80;;;;;;;0.82;87.52;100375.91;5113527;28;20058;-54
2022/01/24 01:30:15;;;;;;;8.93;2.58;;;;;;;1.08;86.57;100372.41;5118292;28;20062;-54
2022/01/24 01:33:10;;;;;;;7.43;2.97;;;;;;;1.01;84.79;100362.97;5113280;28;20046;-53
2022/01/24 01:39:18;;;;;;;6.55;3.33;;;;;;;0.81;87.07;100350.97;5113156;28;20478;-52
2022/01/24 01:57:18;;;;;;;9.75;3.78;;;;;;;0.97;81.70;100346.63;5112470;28;20391;-53
2022/01/24 02:00:06;;;;;;;6.13;3.40;;;;;;;0.93;82.21;100347.50;5112917;28;20059;-53
2022/01/24 02:02:54;;;;;;;8.23;3.17;;;;;;;0.92;83.42;100345.78;5112503;28;20422;-49
2022/01/24 02:05:40;;;;;;;6.95;3.30;;;;;;;0.94;83.87;100322.53;5112477;28;20051;-49
2022/01/24 02:08:28;;;;;;;7.15;2.88;;;;;;;1.14;83.85;100344.84;5111266;28;20055;-50
2022/01/24 02:11:16;;;;;;;6.72;3.47;;;;;;;0.97;80.31;100348.34;5112629;28;20375;-53
2022/01/24 02:14:10;;;;;;;9.13;4.03;;;;;;;0.96;83.26;100344.06;5107840;28;20082;-54
2022/01/24 02:17:07;;;;;;;7.13;3.20;;;;;;;0.95;83.84;100340.59;5091222;28;20047;-53
2022/01/24 02:22:51;;;;;;;8.40;3.40;;;;;;;1.01;82.50;100336.28;5092072;28;20055;-54
2022/01/24 02:25:37;;;;;;;7.60;2.95;;;;;;;1.00;83.16;100340.59;5092215;28;20055;-54
2022/01/24 02:28:25;;;;;;;10.57;3.92;;;;;;;0.97;81.97;100332.84;5092334;28;20055;-54
2022/01/24 02:34:19;;;;;;;12.35;4.53;;;;;;;0.77;81.84;100346.69;5092223;28;20051;-52
2022/01/24 02:37:14;;;;;;;8.02;4.35;;;;;;;0.58;84.16;100331.25;5108694;28;20419;-51
2022/01/24 02:40:10;;;;;;;8.98;3.92;;;;;;;0.68;85.63;100349.28;5116650;28;20058;-52
2022/01/24 02:46:07;;;;;;;7.88;3.53;;;;;;;0.96;86.76;100350.06;5116518;28;20054;-51
2022/01/24 02:48:53;;;;;;;8.85;3.47;;;;;;;1.01;86.07;100352.66;5116313;28;20062;-58
2022/01/24 02:54:29;;;;;;;7.00;3.40;;;;;;;0.88;84.90;100356.13;5122398;28;20572;-53
2022/01/24 02:57:15;;;;;;;9.57;3.63;;;;;;;1.00;85.61;100360.41;5120951;28;20061;-55
2022/01/24 03:00:01;;;;;;;8.93;3.63;;;;;;;0.82;86.10;100356.97;5099647;28;20063;-52
2022/01/24 03:02:46;;;;;;;7.55;3.40;;;;;;;0.69;86.85;100356.16;5095515;28;20047;-54
2022/01/24 03:05:33;;;;;;;9.07;3.67;;;;;;;0.73;87.19;100350.97;5095745;28;20051;-55
2022/01/24 03:08:21;;;;;;;8.80;3.88;;;;;;;0.85;86.48;100362.13;5094854;28;20398;-54
2022/01/24 03:11:08;;;;;;;5.97;3.45;;;;;;;0.96;87.71;100349.22;5095445;28;20605;-52
2022/01/24 03:13:54;;;;;;;7.40;3.30;;;;;;;0.96;86.15;100350.06;5094136;28;20051;-54
2022/01/24 03:16:39;;;;;;;8.27;3.53;;;;;;;1.08;86.32;100372.41;5095524;28;20047;-53
2022/01/24 03:19:25;;;;;;;8.90;3.67;;;;;;;0.98;87.16;100375.84;5095447;28;20054;-52
2022/01/24 03:22:11;;;;;;;8.68;3.10;;;;;;;1.09;87.36;100375.84;5095388;28;20051;-52
2022/01/24 03:24:57;;;;;;;9.57;3.17;;;;;;;1.01;85.55;100372.44;5095027;28;20047;-53
2022/01/24 03:27:43;;;;;;;6.53;3.10;;;;;;;0.85;85.80;100380.19;5095500;28;20083;-54
2022/01/24 03:30:29;;;;;;;7.18;2.58;;;;;;;0.61;86.40;100377.69;5095014;28;20510;-53
2022/01/24 03:33:15;;;;;;;7.75;3.00;;;;;;;0.45;88.04;100350.19;5100084;28;20605;-51
2022/01/24 03:36:01;;;;;;;8.23;3.25;;;;;;;0.67;86.55;100383.69;5094999;28;20047;-54
2022/01/24 03:38:47;;;;;;;7.50;3.28;;;;;;;0.57;87.06;100391.44;5095128;28;20067;-56
2022/01/24 03:41:33;;;;;;;7.45;3.03;;;;;;;0.23;88.79;100386.28;5094904;28;20063;-52
2022/01/24 03:44:19;;;;;;;9.27;3.67;;;;;;;0.36;88.61;100395.75;5094986;28;20059;-50
2022/01/24 03:47:41;;;;;;;7.93;3.03;;;;;;;0.30;87.27;100395.75;5094224;28;20439;-50
2022/01/24 03:50:25;;;;;;;6.53;2.40;;;;;;;0.38;88.12;100390.59;5094840;28;20063;-54
2022/01/24 03:53:11;;;;;;;5.82;2.72;;;;;;;0.56;90.02;100396.59;5094753;28;20106;-53
2022/01/24 03:55:56;;;;;;;5.65;2.65;;;;;;;0.82;88.91;100393.13;5094738;28;20055;-55
2022/01/24 03:58:44;;;;;;;7.25;2.80;;;;;;;0.88;88.28;100390.53;5094579;28;20043;-55
2022/01/24 04:01:31;;;;;;;5.90;2.95;;;;;;;0.91;87.14;100398.28;5093535;28;20051;-52
2022/01/24 04:04:16;;;;;;;7.43;2.88;;;;;;;0.94;87.56;100392.22;5094675;28;20050;-53
2022/01/24 04:07:02;;;;;;;8.00;3.05;;;;;;;0.70;86.59;100381.13;5094344;28;20055;-54
2022/01/24 04:09:49;;;;;;;7.53;2.67;;;;;;;0.99;87.60;100400.81;5093443;28;20407;-54
2022/01/24 04:12:39;;;;;;;7.10;2.78;;;;;;;1.00;86.43;100407.69;5094096;28;20510;-53
2022/01/24 04:15:58;;;;;;;5.43;2.70;;;;;;;1.12;86.84;100408.53;5094893;28;20627;-54
2022/01/24 04:21:33;;;;;;;10.10;3.13;;;;;;;0.75;86.14;100412.06;5093288;28;20047;-54
2022/01/24 04:24:22;;;;;;;8.45;3.10;;;;;;;0.37;87.39;100404.34;5094535;28;20043;-53
2022/01/24 04:27:09;;;;;;;7.85;3.38;;;;;;;0.16;89.11;100400.94;5098754;28;20059;-50
2022/01/24 04:29:55;;;;;;;8.48;3.28;;;;;;;0.44;88.11;100407.81;5094066;28;20403;-52
2022/01/24 04:32:41;;;;;;;6.47;3.03;;;;;;;0.46;88.36;100413.78;5094152;28;20431;-54
2022/01/24 04:35:27;;;;;;;5.30;2.33;;;;;;;0.44;88.03;100406.06;5094044;28;20051;-54
2022/01/24 04:38:12;;;;;;;10.02;2.90;;;;;;;0.21;89.36;100409.50;5099643;28;20514;-53
2022/01/24 04:41:03;;;;;;;5.80;2.78;;;;;;;0.48;89.60;100409.50;5094042;28;20055;-52
2022/01/24 04:44:27;;;;;;;7.60;2.92;;;;;;;0.63;89.82;100412.94;5093531;28;20375;-55
2022/01/24 04:53:05;;;;;;;7.38;2.95;;;;;;;0.92;87.88;100414.59;5093991;28;20051;-50
2022/01/24 04:55:50;;;;;;;6.60;2.47;;;;;;;0.81;87.71;100405.19;5093703;28;20055;-55
2022/01/24 04:58:35;;;;;;;6.03;2.75;;;;;;;0.80;87.81;100415.50;5092841;28;20067;-52
2022/01/24 05:01:22;;;;;;;6.35;3.08;;;;;;;0.71;87.75;100411.19;5093569;28;20051;-51
2022/01/24 05:04:08;;;;;;;9.07;3.92;;;;;;;0.29;89.31;100413.81;5093062;28;20055;-52
2022/01/24 05:06:54;;;;;;;6.35;3.28;;;;;;;0.11;91.25;100412.94;5092434;28;20047;-54
2022/01/24 05:09:45;;;;;;;8.68;3.42;;;;;;;0.08;91.92;100411.19;5107281;28;20074;-55
2022/01/24 05:24:22;;;;;;;7.68;4.00;;;;;;;-0.09;92.71;100434.38;5072897;28;20048;-54
2022/01/24 05:27:08;;;;;;;10.35;4.88;;;;;;;-0.08;92.99;100430.94;5072494;28;20047;-52
2022/01/24 05:29:53;;;;;;;7.13;3.90;;;;;;;-0.14;92.92;100420.63;5072695;28;20515;-51
2022/01/24 05:32:39;;;;;;;8.40;4.28;;;;;;;-0.31;94.12;100431.75;5072789;28;20356;-49
2022/01/24 05:35:25;;;;;;;10.02;3.72;;;;;;;0.01;93.38;100429.25;5072561;28;20271;-53
2022/01/24 05:38:11;;;;;;;7.88;3.30;;;;;;;-0.04;93.13;100424.09;5071538;28;20036;-53
2022/01/24 05:40:57;;;;;;;9.60;4.40;;;;;;;0.26;92.21;100430.16;5075721;28;20050;-50
2022/01/24 05:43:44;;;;;;;9.13;3.65;;;;;;;0.30;91.59;100433.56;5081831;28;20047;-54
2022/01/24 05:46:31;;;;;;;7.13;3.58;;;;;;;0.47;90.92;100426.69;5084640;28;20048;-55
2022/01/24 05:49:17;;;;;;;11.07;4.47;;;;;;;0.49;89.67;100429.25;5071837;28;20067;-53
2022/01/24 05:52:08;;;;;;;9.55;4.60;;;;;;;0.23;90.41;100424.97;5074515;28;20047;-54
2022/01/24 05:54:54;;;;;;;;;;;;;;;0.33;90.80;100441.31;5072054;28;20068;-53
2022/01/24 05:57:39;;;;;;;8.52;3.95;;;;;;;0.18;90.40;100439.59;5091088;28;19916;-52
2022/01/24 06:00:25;;;;;;;8.55;4.53;;;;;;;-0.24;92.71;100448.09;5071562;28;20107;-56
2022/01/24 06:03:11;;;;;;;6.50;3.45;;;;;;;0.08;99.08;100426.66;5074135;28;20049;-53
2022/01/24 06:05:57;;;;;;;10.68;4.53;;;;;;;-0.07;93.38;100426.66;5071888;28;20399;-52
2022/01/24 06:08:42;;;;;;;10.23;4.10;;;;;;;-0.05;94.07;100450.72;5072588;28;20111;-53
2022/01/24 06:11:28;;;;;;;12.40;4.22;;;;;;;0.08;94.57;100429.25;5071344;28;20055;-53
2022/01/24 06:14:14;;;;;;;7.93;3.80;;;;;;;0.31;93.38;100446.47;5078605;28;20067;-54
2022/01/24 06:17:00;;;;;;;8.27;4.30;;;;;;;0.41;91.36;100446.50;5071762;28;20043;-54
2022/01/24 06:19:45;;;;;;;10.90;4.72;;;;;;;0.48;91.73;100443.03;5072230;28;20051;-53
2022/01/24 06:22:31;;;;;;;6.03;3.15;;;;;;;0.61;91.84;100460.25;5071742;28;20048;-53
2022/01/24 06:25:22;;;;;;;10.82;4.90;;;;;;;0.56;89.70;100461.94;5072105;28;20075;-55
2022/01/24 06:28:08;;;;;;;11.85;5.43;;;;;;;0.49;91.83;100460.22;5070832;28;20999;-55
2022/01/24 06:30:54;;;;;;;17.00;8.00;;;;;;;0.25;85.77;100459.34;5071422;28;20044;-51
2022/01/24 06:33:40;;;;;;;19.67;7.78;;;;;;;0.09;86.62;100477.38;5071316;28;20506;-53
2022/01/24 06:36:26;;;;;;;20.83;9.45;;;;;;;-0.21;84.09;100473.00;5072858;28;20510;-53
2022/01/24 06:39:14;;;;;;;19.35;8.82;;;;;;;0.14;85.94;100487.69;5070900;28;20047;-53
2022/01/24 06:42:45;;;;;;;17.17;8.73;;;;;;;-0.20;83.58;100480.75;5072093;28;20056;-50
2022/01/24 06:45:09;;;;;;;19.15;8.98;;;;;;;-0.14;82.33;100493.66;5070542;28;20422;-54
2022/01/24 06:47:55;;;;;;;21.90;9.70;;;;;;;-0.28;79.60;100480.69;5081172;28;20051;-53
2022/01/24 06:50:41;;;;;;;18.52;9.38;;;;;;;-0.25;83.18;100495.31;5070192;28;20055;-51
2022/01/24 06:53:27;;;;;;;15.52;8.30;;;;;;;-0.56;81.74;100500.34;5077267;28;20043;-48
2022/01/24 06:56:13;;;;;;;15.13;7.80;;;;;;;-0.41;82.75;100500.38;5070852;28;20048;-52
2022/01/24 06:58:58;;;;;;;20.10;8.65;;;;;;;-0.65;79.48;100481.41;5073717;28;20048;-54
2022/01/24 07:01:44;;;;;;;18.65;9.27;;;;;;;-0.76;78.41;100498.50;5071483;28;20052;-55
2022/01/24 07:04:30;;;;;;;21.73;9.15;;;;;;;-0.47;79.77;100514.97;5080866;28;20067;-54
2022/01/24 07:07:16;;;;;;;16.35;7.63;;;;;;;-0.73;77.79;100516.53;5096937;28;20055;-54
2022/01/24 07:10:01;;;;;;;16.02;7.10;;;;;;;-1.02;76.61;100506.91;5090145;28;20055;-49
2022/01/24 07:12:47;;;;;;;15.77;7.05;;;;;;;-0.70;76.69;100508.81;5091878;28;20150;-53
2022/01/24 07:15:38;;;;;;;16.52;7.15;;;;;;;-0.34;78.84;100518.47;5091603;28;20166;-50
2022/01/24 07:21:12;;;;;;;14.77;6.65;;;;;;;-0.64;73.01;100528.63;5091600;28;20047;-51
2022/01/24 07:23:58;;;;;;;13.88;6.78;;;;;;;-0.67;75.19;100531.19;5093448;28;20051;-51
2022/01/24 07:26:43;;;;;;;15.63;6.40;;;;;;;-0.47;74.22;100531.28;5095059;28;20047;-54
2022/01/24 07:29:29;;;;;;;12.32;6.20;;;;;;;-0.78;72.01;100516.50;5092949;28;20356;-53
2022/01/24 07:32:15;;;;;;;16.55;6.65;;;;;;;-0.56;73.79;100536.38;5095425;28;20062;-51
2022/01/24 07:35:01;;;;;;;14.30;6.18;;;;;;;-0.35;71.06;100539.91;5093082;28;20058;-55
2022/01/24 07:37:46;;;;;;;15.80;6.70;;;;;;;-0.34;69.35;100545.06;5094840;28;20051;-54
2022/01/24 07:40:38;;;;;;;11.73;6.28;;;;;;;-0.89;70.19;100533.59;5094027;28;20396;-49
2022/01/24 07:43:24;;;;;;;11.90;6.63;;;;;;;-0.92;72.32;100549.88;5094811;28;20798;-53
2022/01/24 07:46:09;;;;;;;13.77;5.97;;;;;;;-0.35;78.37;100560.53;5093976;28;20047;-53
2022/01/24 07:48:55;;;;;;;14.70;6.15;;;;;;;-0.81;71.82;100519.06;5094792;28;20114;-51
2022/01/24 07:51:41;;;;;;;18.58;7.45;;;;;;;-0.91;73.04;100561.91;5094802;28;20075;-54
2022/01/24 07:54:27;;;;;;;13.93;6.25;;;;;;;-0.79;76.06;100562.84;5092823;28;20395;-53
2022/01/24 07:57:13;;;;;;;15.07;6.13;;;;;;;-0.69;74.04;100569.78;5085717;28;20051;-60
2022/01/24 07:59:58;;;;;;;16.35;8.40;;;;;;;1.88;88.45;100571.03;5078654;28;20079;-60
2022/01/24 08:02:45;;;;;;;19.65;7.47;;;;;;;1.12;76.90;100573.78;5073086;28;20482;-59
2022/01/24 08:05:31;;;;;;;18.48;8.50;;;;;;;0.88;77.99;100572.91;5082034;28;20044;-52
2022/01/24 08:08:16;;;;;;;20.80;8.60;;;;;;;0.05;73.48;100575.31;5084792;28;20419;-54
2022/01/24 08:11:02;;;;;;;19.02;8.15;;;;;;;0.29;76.69;100587.44;5079517;28;20507;-55
2022/01/24 08:13:48;;;;;;;18.67;8.00;;;;;;;-0.21;74.68;100583.81;5072484;28;20048;-55
2022/01/24 08:16:35;;;;;;;21.70;9.32;;;;;;;-0.02;75.21;100605.38;5078229;28;20048;-51
2022/01/24 08:19:21;;;;;;;14.77;8.13;;;;;;;0.05;74.40;100607.09;5071710;28;20060;-54
2022/01/24 08:22:07;;;;;;;19.55;8.27;;;;;;;0.03;73.23;100607.97;5072071;28;20052;-54
2022/01/24 08:24:52;;;;;;;18.77;8.45;;;;;;;0.03;73.03;100620.84;5073619;28;20047;-57
2022/01/24 08:27:39;;;;;;;34.40;13.70;;;;;;;-0.07;74.62;100617.34;5073945;28;20435;-56
2022/01/24 08:30:25;;;;;;;23.85;9.95;;;;;;;0.05;73.55;100614.81;5073733;28;20055;-59
2022/01/24 08:33:10;;;;;;;18.38;8.73;;;;;;;-0.06;74.81;100604.47;5073424;28;20119;-55
2022/01/24 08:35:57;;;;;;;17.95;8.00;;;;;;;-0.14;72.06;100629.34;5073471;28;20096;-55
2022/01/24 08:38:46;;;;;;;16.65;7.60;;;;;;;0.17;75.93;100618.31;5073141;28;20052;-55
2022/01/24 08:41:42;;;;;;;17.23;8.57;;;;;;;0.54;71.32;100628.75;5090171;28;20050;-56
2022/01/24 08:47:37;;;;;;;17.38;8.20;;;;;;;0.64;69.62;100623.66;5114052;28;20050;-55
2022/01/24 08:50:26;;;;;;;16.50;7.72;;;;;;;0.83;71.64;100619.38;5114149;28;20066;-54
2022/01/24 08:53:12;;;;;;;16.35;8.32;;;;;;;1.23;68.45;100610.78;5113920;28;20057;-57
2022/01/24 08:55:59;;;;;;;15.90;7.88;;;;;;;2.16;67.04;100621.78;5112836;28;20055;-57
2022/01/24 08:58:45;;;;;;;16.58;6.95;;;;;;;1.95;64.50;100613.25;5096602;28;20066;-58
2022/01/24 09:01:31;;;;;;;17.65;7.45;;;;;;;1.65;64.23;100625.38;5093494;28;20047;-55
2022/01/24 09:04:17;;;;;;;14.38;6.65;;;;;;;1.82;63.46;100628.78;5092312;28;20101;-56
2022/01/24 09:07:04;;;;;;;15.13;7.25;;;;;;;2.56;60.81;100631.09;5096171;28;20063;-58
2022/01/24 09:09:49;;;;;;;13.65;7.18;;;;;;;3.81;56.16;100638.75;5087097;28;20066;-57
2022/01/24 09:12:35;;;;;;;13.38;6.35;;;;;;;3.66;56.48;100629.38;5092828;28;20043;-58
2022/01/24 09:15:21;;;;;;;23.25;7.43;;;;;;;4.01;56.38;100640.25;5090768;28;20051;-57
2022/01/24 09:18:07;;;;;;;12.95;7.07;;;;;;;4.35;53.53;100638.13;5072506;28;20056;-46
2022/01/24 09:20:53;;;;;;;16.75;7.30;;;;;;;4.07;54.71;100642.78;5077899;28;20048;-52
2022/01/24 09:23:44;;;;;;;14.48;7.80;;;;;;;5.04;50.19;100644.06;5080271;28;20416;-50
2022/01/24 09:26:31;;;;;;;14.85;7.55;;;;;;;4.52;51.53;100640.50;5071867;28;20423;-46
2022/01/24 09:29:16;;;;;;;16.38;8.02;;;;;;;3.84;51.54;100642.16;5072750;28;20055;-51
2022/01/24 09:32:03;;;;;;;16.88;7.43;;;;;;;3.78;52.97;100632.72;5072733;28;20051;-49
2022/01/24 09:34:48;;;;;;;16.10;7.75;;;;;;;3.11;53.01;100631.59;5071632;28;20448;-49
2022/01/24 09:37:35;;;;;;;17.27;9.32;;;;;;;2.64;55.12;100642.25;5072719;28;20048;-51
2022/01/24 09:40:22;;;;;;;18.88;9.52;;;;;;;2.13;56.57;100645.06;5078673;28;20428;-50
2022/01/24 09:43:07;;;;;;;18.10;9.02;;;;;;;1.71;58.34;100638.28;5072734;28;20403;-52
2022/01/24 09:45:54;;;;;;;18.75;8.38;;;;;;;1.95;58.71;100637.38;5072463;28;20060;-47
2022/01/24 09:48:41;;;;;;;22.23;10.25;;;;;;;1.81;58.16;100639.13;5072530;28;20052;-53
2022/01/24 09:51:27;;;;;;;18.60;9.32;;;;;;;1.54;59.40;100626.25;5072508;28;20076;-48
2022/01/24 09:54:12;;;;;;;16.42;8.85;;;;;;;1.75;59.42;100626.22;5077566;28;20064;-50
2022/01/24 09:56:58;;;;;;;20.30;9.30;;;;;;;1.58;59.36;100634.88;5072439;28;20059;-50
2022/01/24 09:59:44;;;;;;;20.25;9.20;;;;;;;1.45;59.66;100634.88;5094058;28;20407;-46
2022/01/24 10:02:30;;;;;;;14.82;8.60;;;;;;;1.72;61.90;100632.25;5080964;28;20043;-49
2022/01/24 10:05:34;;;;;;;21.65;8.05;;;;;;;1.35;58.75;100641.75;5091603;28;20050;-54
2022/01/24 10:08:23;;;;;;;19.20;8.90;;;;;;;1.17;59.44;100642.66;5092269;28;20111;-50
2022/01/24 10:11:16;;;;;;;15.30;6.32;;;;;;;1.68;77.46;100640.88;5105838;28;20055;-51
2022/01/24 10:17:15;;;;;;;17.95;8.52;;;;;;;2.17;57.68;100631.28;5104596;28;20481;-54
2022/01/24 10:20:19;;;;;;;12.50;6.70;;;;;;;2.98;68.11;100629.97;5112555;28;20062;-47
2022/01/24 10:23:11;;;;;;;13.15;6.95;;;;;;;3.07;54.55;100633.34;5100734;28;20059;-52
2022/01/24 10:26:02;;;;;;;16.30;7.95;;;;;;;2.16;54.86;100626.94;5092339;28;20055;-51
2022/01/24 10:28:49;;;;;;;16.60;8.73;;;;;;;2.02;59.36;100625.28;5092321;28;20051;-49
2022/01/24 10:31:45;;;;;;;15.48;7.63;;;;;;;2.51;56.26;100628.53;5090357;28;20058;-47
2022/01/24 10:34:36;;;;;;;17.35;8.75;;;;;;;1.83;57.06;100621.88;5091377;28;20063;-50
2022/01/24 10:37:23;;;;;;;18.58;9.05;;;;;;;1.35;58.21;100615.09;5091556;28;20047;-49
2022/01/24 10:40:19;;;;;;;19.75;8.65;;;;;;;1.52;74.01;100632.28;5091709;28;20115;-52
2022/01/24 10:43:18;;;;;;;17.98;8.90;;;;;;;3.47;55.19;100617.47;5079316;28;20491;-53
2022/01/24 10:46:04;;;;;;;22.38;10.15;;;;;;;2.81;55.95;100625.75;5077220;28;20123;-50
2022/01/24 10:49:03;;;;;;;16.98;8.52;;;;;;;4.25;50.54;100625.28;5081156;28;20063;-48
2022/01/24 10:51:53;;;;;;;17.35;9.32;;;;;;;4.92;48.89;100628.69;5071729;28;20059;-48
2022/01/24 10:54:40;;;;;;;18.48;8.40;;;;;;;4.72;50.13;100629.84;5079707;28;20510;-52
2022/01/24 10:57:28;;;;;;;18.75;9.05;;;;;;;5.63;46.92;100621.44;5088550;28;20364;-49
2022/01/24 11:00:26;;;;;;;16.13;8.20;;;;;;;5.50;46.37;100627.75;5084529;28;20510;-46
2022/01/24 11:03:19;;;;;;;15.60;8.40;;;;;;;6.42;44.41;100631.22;5078043;28;20052;-50
2022/01/24 11:06:05;;;;;;;16.33;8.07;;;;;;;5.76;45.67;100622.06;5074637;28;20059;-51
2022/01/24 11:09:08;;;;;;;15.55;7.88;;;;;;;6.31;43.85;100635.78;5075540;28;20051;-52
2022/01/24 11:12:08;;;;;;;15.80;8.07;;;;;;;6.20;41.86;100616.03;5074365;28;20052;-51
2022/01/24 11:14:54;;;;;;;14.98;7.75;;;;;;;7.75;39.81;100607.19;5074328;28;20071;-50
2022/01/24 11:17:42;;;;;;;14.50;7.55;;;;;;;9.67;37.94;100614.38;5074511;28;20514;-51
2022/01/24 11:20:32;;;;;;;17.60;7.38;;;;;;;7.82;38.49;100616.53;5085846;28;20055;-50
2022/01/24 11:23:21;;;;;;;14.57;7.50;;;;;;;8.36;39.42;100605.47;5074705;28;20391;-49
2022/01/24 11:26:07;;;;;;;14.05;7.40;;;;;;;7.68;38.96;100606.50;5094356;28;20074;-48
2022/01/24 11:28:53;;;;;;;17.08;7.55;;;;;;;9.13;36.91;100606.59;5114445;28;20054;-49
2022/01/24 11:31:58;;;;;;;14.93;7.30;;;;;;;6.77;40.00;100577.47;5112276;28;20063;-47
2022/01/24 11:34:49;;;;;;;13.30;7.07;;;;;;;6.32;41.42;100588.91;5095179;28;20055;-52
2022/01/24 11:37:36;;;;;;;14.45;7.28;;;;;;;7.03;39.94;100599.41;5094965;28;20051;-48
2022/01/24 11:40:23;;;;;;;20.98;10.98;;;;;;;9.28;57.86;100586.91;5094834;28;20055;-33
2022/01/24 11:43:32;;;;;;;16.50;8.98;;;;;;;7.63;49.47;100584.88;5092902;28;20051;-49
2022/01/24 11:46:55;;;;;;;19.70;8.55;;;;;;;7.25;42.95;100587.59;5094745;28;20056;-53
2022/01/24 11:49:41;;;;;;;15.50;8.23;;;;;;;7.08;41.40;100585.44;5094882;28;20051;-50
2022/01/24 11:52:32;;;;;;;14.20;7.50;;;;;;;7.84;38.91;100593.00;5094604;28;20043;-56
2022/01/24 11:55:34;;;;;;;13.33;7.90;;;;;;;8.58;38.04;100576.97;5093626;28;20058;-56
2022/01/24 11:58:30;;;;;;;16.83;8.18;;;;;;;8.86;37.37;100581.28;5086409;28;20522;-56
2022/01/24 12:01:36;;;;;;;17.55;7.82;;;;;;;9.23;35.99;100587.09;5079857;28;20055;-52
2022/01/24 12:04:55;;;;;;;15.90;8.05;;;;;;;9.63;36.34;100578.72;5090484;28;20055;-53
2022/01/24 12:07:50;;;;;;;14.05;7.78;;;;;;;10.97;33.23;100580.69;5080721;28;20051;-53
2022/01/24 12:10:41;;;;;;;16.40;8.50;;;;;;;9.65;37.85;100586.53;5087953;28;20051;-53
2022/01/24 12:13:29;;;;;;;15.15;7.50;;;;;;;9.36;36.79;100582.28;5092436;28;20055;-54
2022/01/24 12:16:16;;;;;;;12.48;7.43;;;;;;;9.39;36.51;100576.06;5088244;28;20055;-53
2022/01/24 12:19:04;;;;;;;14.85;7.95;;;;;;;9.27;37.30;100593.03;5073605;28;20056;-51
2022/01/24 12:21:51;;;;;;;13.98;8.02;;;;;;;9.44;36.58;100583.75;5074190;28;20075;-53
2022/01/24 12:24:44;;;;;;;15.98;8.13;;;;;;;9.33;36.31;100578.91;5073911;28;20039;-56
2022/01/24 12:27:30;;;;;;;23.33;8.00;;;;;;;9.55;36.60;100583.38;5089756;28;20050;-54
2022/01/24 12:30:18;;;;;;;15.02;7.93;;;;;;;9.04;36.74;100573.75;5113982;28;20054;-55
2022/01/24 12:33:05;;;;;;;17.48;8.25;;;;;;;8.72;37.38;100565.22;5114363;28;20051;-52
2022/01/24 12:35:50;;;;;;;16.20;6.82;;;;;;;13.18;78.43;100569.00;5113464;28;20047;-48
2022/01/24 12:38:40;;;;;;;14.88;6.82;;;;;;;13.74;41.93;100562.66;5092768;28;20063;-67
2022/01/24 12:41:30;;;;;;;14.80;7.50;;;;;;;13.90;49.90;100567.97;5093383;28;20051;-62
2022/01/24 12:47:26;;;;;;;13.23;6.38;;;;;;;14.33;47.61;100563.91;5091428;28;20051;-60
2022/01/24 12:50:12;;;;;;;15.30;7.45;;;;;;;13.32;49.60;100567.44;5113938;28;20055;-60
2022/01/24 12:52:57;;;;;;;15.38;6.57;;;;;;;14.32;48.74;100568.31;5096319;28;20049;-59
2022/01/24 12:55:45;;;;;;;21.23;7.13;;;;;;;13.36;48.94;100553.19;5076226;28;20048;-50
2022/01/24 12:58:37;;;;;;;15.10;6.65;;;;;;;11.62;45.84;100563.13;5072857;28;20051;-50
2022/01/24 13:01:31;;;;;;;16.35;8.00;;;;;;;12.53;44.86;100573.84;5073213;28;20063;-48
2022/01/24 13:04:17;;;;;;;13.50;7.85;;;;;;;12.26;41.80;100545.34;5091440;28;20067;-52
2022/01/24 13:07:03;;;;;;;14.45;7.43;;;;;;;12.30;49.14;100562.69;5091169;28;20411;-46
2022/01/24 13:09:49;;;;;;;15.52;8.75;;;;;;;11.01;51.20;100550.81;5092370;28;20055;-51
2022/01/24 13:12:36;;;;;;;11.50;6.25;;;;;;;13.04;45.25;100551.28;5092001;28;20127;-69
2022/01/24 13:21:36;;;;;;;16.95;8.45;;;;;;;13.08;40.67;100555.44;5072315;28;20051;-62
2022/01/24 13:24:22;;;;;;;12.15;6.72;;;;;;;12.47;45.99;100563.63;5077887;28;20067;-62
2022/01/24 13:27:09;;;;;;;13.13;7.97;;;;;;;11.49;43.18;100558.38;5072423;28;20416;-56
2022/01/24 13:29:54;;;;;;;14.65;8.15;;;;;;;11.56;39.98;100558.97;5072304;28;20044;-60
2022/01/24 13:33:00;;;;;;;13.13;8.10;;;;;;;9.60;42.82;100563.13;5072584;28;20043;-60
2022/01/24 13:35:55;;;;;;;14.07;8.15;;;;;;;9.74;44.02;100573.97;5078912;28;20534;-58
2022/01/24 13:38:46;;;;;;;15.20;7.53;;;;;;;8.65;45.64;100566.31;5072481;28;20063;-60
2022/01/24 13:41:32;;;;;;;;;;;;;;;8.05;47.67;100568.06;5072909;28;20119;-61
2022/01/24 13:44:18;;;;;;;16.63;8.15;;;;;;;7.57;49.06;100566.81;5073224;28;19912;-63
2022/01/24 13:47:09;;;;;;;16.73;8.90;;;;;;;7.23;50.80;100577.22;5091451;28;20043;-61
2022/01/24 13:49:54;;;;;;;14.27;8.18;;;;;;;7.98;53.48;100574.38;5092144;28;20062;-63
2022/01/24 13:52:48;;;;;;;18.50;9.13;;;;;;;7.54;55.67;100572.09;5092658;28;20050;-61
2022/01/24 13:55:40;;;;;;;15.93;8.35;;;;;;;7.03;54.02;100572.53;5092823;28;20059;-60
2022/01/24 13:58:27;;;;;;;16.73;9.07;;;;;;;7.32;54.10;100583.09;5092630;28;20070;-60
2022/01/24 14:01:13;;;;;;;14.63;8.10;;;;;;;7.54;55.79;100583.38;5090821;28;20406;-66
2022/01/24 14:04:03;;;;;;;15.18;8.30;;;;;;;6.74;58.75;100587.13;5087979;28;20075;-58
2022/01/24 14:06:57;;;;;;;15.27;7.50;;;;;;;6.86;62.70;100581.59;5093676;28;20142;-60
2022/01/24 14:10:04;;;;;;;15.90;7.40;;;;;;;7.33;65.10;100583.06;5097273;28;20110;-59
2022/01/24 14:12:55;;;;;;;18.88;8.70;;;;;;;6.27;63.54;100542.13;5098367;28;20054;-55
2022/01/24 14:16:01;;;;;;;21.57;8.90;;;;;;;6.19;59.52;100587.44;5075414;28;20075;-62
2022/01/24 14:18:59;;;;;;;17.05;7.25;;;;;;;6.72;61.29;100587.16;5073483;28;20068;-65
2022/01/24 14:22:21;;;;;;;15.02;7.68;;;;;;;5.69;60.93;100594.47;5075822;28;20047;-58
2022/01/24 14:25:29;;;;;;;16.88;8.80;;;;;;;5.15;64.22;100593.69;5027677;28;20128;-61
2022/01/24 14:28:15;;;;;;;13.93;7.10;;;;;;;6.53;72.13;100597.97;5082382;28;20047;-58
2022/01/24 14:31:11;;;;;;;14.68;7.78;;;;;;;6.19;71.37;100588.31;5081336;28;20055;-58
2022/01/24 14:34:03;;;;;;;14.00;7.75;;;;;;;7.55;72.11;100586.84;5091741;28;20043;-59
2022/01/24 14:36:56;;;;;;;17.98;9.00;;;;;;;5.95;58.72;100593.09;5108424;28;20517;-62
2022/01/24 14:39:46;;;;;;;17.33;9.18;;;;;;;4.49;61.90;100592.06;5107155;28;20055;-60
2022/01/24 14:42:45;;;;;;;20.17;9.60;;;;;;;3.59;64.76;100575.03;5093493;28;20055;-61